New Philadelphia, OH

10:03 PM EST on December 09, 2016 (GMT -0500)
Steele Hill | | Change Station

Elev 942 ft 40.48 °N, 81.48 °W | Updated 10 seconds ago

Overcast
Overcast
25.9 °F
Feels Like 26 °F
N
3.0
Wind Variable Wind from SW
Gusts 8.0 mph

Today
High -- | Low -- °F
--% Chance of Precip.
Yesterday
High -- | Low -- °F
Precip. -- in
Pressure 30.49 in
Visibility 10.0 miles
Clouds Overcast 6000 ft
Windchill 26 °F
Dew Point 21 °F
Humidity 82%
Rainfall 0.00 in
Snow Depth Not available.
7:37 AM 4:58 PM
Waxing Gibbous, 79% visible
METAR KPHD 100253Z AUTO 25007KT 10SM OVC060 M03/M07 A3045 RMK AO2 SLP325 T10331067 58001
Pressure 30.49 in
Visibility 10.0 miles
Clouds Overcast 6000 ft
Windchill 26 °F
Dew Point 21 °F
Humidity 82%
Rainfall 0.00 in
Snow Depth Not available.
7:37 AM 4:58 PM
Waxing Gibbous, 79% visible
METAR KPHD 100253Z AUTO 25007KT 10SM OVC060 M03/M07 A3045 RMK AO2 SLP325 T10331067 58001

10-Day Weather Forecast

Almanac

Astronomy

Dec. 09, 2016 Rise Set
Actual Time
Civil Twilight
Nautical Twilight
Astronomical Twilight
Moon
Length of Visible Light
Length of Day
Tomorrow will be .
, % of the Moon is Illuminated

Today's Extremes

State Highs State Lows

Community

WunderPhotos

Upload Photos

1,956,532 photos uploaded!

WunderBlog® & News

Nearby

Air Quality

  Air Quality AQ Index Pollutant
Not available.

Snow Depth

Station Depth Elevation

Earthquake Activity

City Distance Mag. Time & Date
Minimum magnitude displayed is 2.5.

Coastal Water Temperatures

Place Temperature

Stations

Nearby Weather Stations

Station Location Temp. Windchill Dew Point Humidity Wind Precip. Elev Updated Type
                   

Watches & Warnings

There are currently no watches in effect.